sensor_id;sensor_type;location;lat;lon;timestamp;P1;durP1;ratioP1;P2;durP2;ratioP2
74920;SDS011;63483;47.384;8.860;2023-02-11T00:00:03;22.50;;;11.33;;
74920;SDS011;63483;47.384;8.860;2023-02-11T00:02:30;21.83;;;10.68;;
74920;SDS011;63483;47.384;8.860;2023-02-11T00:04:57;22.67;;;10.63;;
74920;SDS011;63483;47.384;8.860;2023-02-11T00:07:22;19.60;;;10.53;;
74920;SDS011;63483;47.384;8.860;2023-02-11T00:09:48;19.38;;;10.10;;
74920;SDS011;63483;47.384;8.860;2023-02-11T00:12:13;18.85;;;10.35;;
74920;SDS011;63483;47.384;8.860;2023-02-11T00:14:39;19.50;;;9.53;;
74920;SDS011;63483;47.384;8.860;2023-02-11T00:17:05;21.10;;;10.02;;
74920;SDS011;63483;47.384;8.860;2023-02-11T00:19:30;17.57;;;8.57;;
74920;SDS011;63483;47.384;8.860;2023-02-11T00:21:56;20.73;;;10.10;;
74920;SDS011;63483;47.384;8.860;2023-02-11T00:24:21;18.73;;;10.00;;
74920;SDS011;63483;47.384;8.860;2023-02-11T00:26:46;21.67;;;9.63;;
74920;SDS011;63483;47.384;8.860;2023-02-11T00:29:12;19.80;;;9.27;;
74920;SDS011;63483;47.384;8.860;2023-02-11T00:31:37;19.02;;;9.05;;
74920;SDS011;63483;47.384;8.860;2023-02-11T00:34:02;18.13;;;8.70;;
74920;SDS011;63483;47.384;8.860;2023-02-11T00:36:28;17.67;;;9.20;;
74920;SDS011;63483;47.384;8.860;2023-02-11T00:38:54;18.83;;;9.18;;
74920;SDS011;63483;47.384;8.860;2023-02-11T00:41:21;16.37;;;9.10;;
74920;SDS011;63483;47.384;8.860;2023-02-11T00:43:47;21.48;;;9.90;;
74920;SDS011;63483;47.384;8.860;2023-02-11T00:46:13;20.70;;;10.00;;
74920;SDS011;63483;47.384;8.860;2023-02-11T00:48:39;17.10;;;8.82;;
74920;SDS011;63483;47.384;8.860;2023-02-11T00:51:04;16.80;;;8.57;;
74920;SDS011;63483;47.384;8.860;2023-02-11T00:53:31;17.40;;;8.57;;
74920;SDS011;63483;47.384;8.860;2023-02-11T00:55:56;20.92;;;9.43;;
74920;SDS011;63483;47.384;8.860;2023-02-11T00:58:22;19.90;;;8.53;;
74920;SDS011;63483;47.384;8.860;2023-02-11T01:00:47;18.33;;;8.48;;
74920;SDS011;63483;47.384;8.860;2023-02-11T01:03:13;15.80;;;7.83;;
74920;SDS011;63483;47.384;8.860;2023-02-11T01:05:39;16.40;;;8.10;;
74920;SDS011;63483;47.384;8.860;2023-02-11T01:08:04;14.63;;;8.13;;
74920;SDS011;63483;47.384;8.860;2023-02-11T01:10:30;15.27;;;7.67;;
74920;SDS011;63483;47.384;8.860;2023-02-11T01:12:56;17.35;;;7.97;;
74920;SDS011;63483;47.384;8.860;2023-02-11T01:15:22;16.77;;;7.53;;
74920;SDS011;63483;47.384;8.860;2023-02-11T01:17:48;15.40;;;7.07;;
74920;SDS011;63483;47.384;8.860;2023-02-11T01:20:15;14.93;;;7.03;;
74920;SDS011;63483;47.384;8.860;2023-02-11T01:22:43;14.57;;;7.25;;
74920;SDS011;63483;47.384;8.860;2023-02-11T01:25:09;13.70;;;6.83;;
74920;SDS011;63483;47.384;8.860;2023-02-11T01:27:35;24.92;;;10.32;;
74920;SDS011;63483;47.384;8.860;2023-02-11T01:30:01;15.30;;;7.20;;
74920;SDS011;63483;47.384;8.860;2023-02-11T01:32:26;15.45;;;6.68;;
74920;SDS011;63483;47.384;8.860;2023-02-11T01:34:51;15.17;;;7.07;;
74920;SDS011;63483;47.384;8.860;2023-02-11T01:37:17;15.70;;;7.60;;
74920;SDS011;63483;47.384;8.860;2023-02-11T01:39:42;14.63;;;7.17;;
74920;SDS011;63483;47.384;8.860;2023-02-11T01:42:10;16.30;;;7.10;;
74920;SDS011;63483;47.384;8.860;2023-02-11T01:44:40;13.65;;;6.32;;
74920;SDS011;63483;47.384;8.860;2023-02-11T01:47:06;14.63;;;6.80;;
74920;SDS011;63483;47.384;8.860;2023-02-11T01:49:32;14.05;;;7.03;;
74920;SDS011;63483;47.384;8.860;2023-02-11T01:54:32;15.40;;;6.88;;
74920;SDS011;63483;47.384;8.860;2023-02-11T01:57:21;12.13;;;5.78;;
74920;SDS011;63483;47.384;8.860;2023-02-11T02:02:54;11.43;;;5.93;;
74920;SDS011;63483;47.384;8.860;2023-02-11T02:05:27;12.73;;;6.18;;
74920;SDS011;63483;47.384;8.860;2023-02-11T02:11:03;15.73;;;6.78;;
74920;SDS011;63483;47.384;8.860;2023-02-11T02:13:30;14.88;;;6.82;;
74920;SDS011;63483;47.384;8.860;2023-02-11T02:15:58;12.13;;;6.43;;
74920;SDS011;63483;47.384;8.860;2023-02-11T02:18:39;14.00;;;6.43;;
74920;SDS011;63483;47.384;8.860;2023-02-11T02:29:49;14.65;;;6.93;;
74920;SDS011;63483;47.384;8.860;2023-02-11T02:35:26;12.43;;;6.13;;
74920;SDS011;63483;47.384;8.860;2023-02-11T02:40:48;15.00;;;7.57;;
74920;SDS011;63483;47.384;8.860;2023-02-11T02:43:14;13.52;;;6.97;;
74920;SDS011;63483;47.384;8.860;2023-02-11T02:45:41;15.77;;;6.68;;
74920;SDS011;63483;47.384;8.860;2023-02-11T02:48:20;13.57;;;6.50;;
74920;SDS011;63483;47.384;8.860;2023-02-11T02:50:48;11.90;;;5.55;;
74920;SDS011;63483;47.384;8.860;2023-02-11T02:53:25;12.70;;;5.68;;
74920;SDS011;63483;47.384;8.860;2023-02-11T03:01:09;13.93;;;6.40;;
74920;SDS011;63483;47.384;8.860;2023-02-11T03:03:51;14.68;;;5.78;;
74920;SDS011;63483;47.384;8.860;2023-02-11T03:09:13;13.63;;;6.43;;
74920;SDS011;63483;47.384;8.860;2023-02-11T03:11:44;15.05;;;7.72;;
74920;SDS011;63483;47.384;8.860;2023-02-11T03:14:10;19.05;;;7.90;;
74920;SDS011;63483;47.384;8.860;2023-02-11T03:16:39;21.33;;;10.07;;
74920;SDS011;63483;47.384;8.860;2023-02-11T03:19:09;16.65;;;8.32;;
74920;SDS011;63483;47.384;8.860;2023-02-11T03:21:39;397.30;;;29.25;;
74920;SDS011;63483;47.384;8.860;2023-02-11T03:24:11;22.73;;;9.10;;
74920;SDS011;63483;47.384;8.860;2023-02-11T03:26:45;16.93;;;7.57;;
74920;SDS011;63483;47.384;8.860;2023-02-11T03:32:16;11.68;;;5.13;;
74920;SDS011;63483;47.384;8.860;2023-02-11T03:34:54;11.18;;;4.18;;
74920;SDS011;63483;47.384;8.860;2023-02-11T03:39:55;13.93;;;5.10;;
74920;SDS011;63483;47.384;8.860;2023-02-11T03:42:26;11.50;;;5.32;;
74920;SDS011;63483;47.384;8.860;2023-02-11T03:45:08;11.82;;;6.07;;
74920;SDS011;63483;47.384;8.860;2023-02-11T03:47:37;10.30;;;4.93;;
74920;SDS011;63483;47.384;8.860;2023-02-11T03:50:06;11.07;;;5.50;;
74920;SDS011;63483;47.384;8.860;2023-02-11T03:52:33;14.20;;;6.73;;
74920;SDS011;63483;47.384;8.860;2023-02-11T03:55:02;14.32;;;6.03;;
74920;SDS011;63483;47.384;8.860;2023-02-11T03:57:37;14.23;;;5.90;;
74920;SDS011;63483;47.384;8.860;2023-02-11T04:00:03;12.47;;;5.17;;
74920;SDS011;63483;47.384;8.860;2023-02-11T04:02:30;11.45;;;5.28;;
74920;SDS011;63483;47.384;8.860;2023-02-11T04:04:58;12.35;;;4.97;;
74920;SDS011;63483;47.384;8.860;2023-02-11T04:07:23;11.60;;;4.67;;
74920;SDS011;63483;47.384;8.860;2023-02-11T04:09:49;10.32;;;5.18;;
74920;SDS011;63483;47.384;8.860;2023-02-11T04:12:14;12.03;;;5.30;;
74920;SDS011;63483;47.384;8.860;2023-02-11T04:14:40;11.70;;;5.80;;
74920;SDS011;63483;47.384;8.860;2023-02-11T04:17:05;38.00;;;7.10;;
74920;SDS011;63483;47.384;8.860;2023-02-11T04:19:31;16.88;;;6.68;;
74920;SDS011;63483;47.384;8.860;2023-02-11T04:21:56;13.07;;;6.33;;
74920;SDS011;63483;47.384;8.860;2023-02-11T04:24:22;13.97;;;6.43;;
74920;SDS011;63483;47.384;8.860;2023-02-11T04:26:47;13.87;;;5.93;;
74920;SDS011;63483;47.384;8.860;2023-02-11T04:29:12;12.70;;;5.60;;
74920;SDS011;63483;47.384;8.860;2023-02-11T04:31:38;12.02;;;5.13;;
74920;SDS011;63483;47.384;8.860;2023-02-11T04:34:03;12.02;;;5.47;;
74920;SDS011;63483;47.384;8.860;2023-02-11T04:36:29;11.63;;;5.50;;
74920;SDS011;63483;47.384;8.860;2023-02-11T04:38:54;11.77;;;5.53;;
74920;SDS011;63483;47.384;8.860;2023-02-11T04:41:19;11.40;;;5.63;;
74920;SDS011;63483;47.384;8.860;2023-02-11T04:43:45;13.13;;;5.80;;
74920;SDS011;63483;47.384;8.860;2023-02-11T04:46:10;14.63;;;5.97;;
74920;SDS011;63483;47.384;8.860;2023-02-11T04:48:35;10.43;;;4.73;;
74920;SDS011;63483;47.384;8.860;2023-02-11T04:51:01;10.23;;;5.00;;
74920;SDS011;63483;47.384;8.860;2023-02-11T04:53:27;11.00;;;4.85;;
74920;SDS011;63483;47.384;8.860;2023-02-11T04:55:52;9.47;;;4.60;;
74920;SDS011;63483;47.384;8.860;2023-02-11T04:58:18;9.83;;;4.70;;
74920;SDS011;63483;47.384;8.860;2023-02-11T05:00:44;9.80;;;4.55;;
74920;SDS011;63483;47.384;8.860;2023-02-11T05:03:09;9.90;;;4.60;;
74920;SDS011;63483;47.384;8.860;2023-02-11T05:05:37;8.37;;;4.10;;
74920;SDS011;63483;47.384;8.860;2023-02-11T05:08:04;11.07;;;5.22;;
74920;SDS011;63483;47.384;8.860;2023-02-11T05:10:30;8.90;;;4.87;;
74920;SDS011;63483;47.384;8.860;2023-02-11T05:12:55;11.50;;;4.68;;
74920;SDS011;63483;47.384;8.860;2023-02-11T05:15:20;8.95;;;4.63;;
74920;SDS011;63483;47.384;8.860;2023-02-11T05:17:46;9.23;;;4.07;;
74920;SDS011;63483;47.384;8.860;2023-02-11T05:20:11;8.23;;;4.53;;
74920;SDS011;63483;47.384;8.860;2023-02-11T05:22:36;11.90;;;5.57;;
74920;SDS011;63483;47.384;8.860;2023-02-11T05:25:02;9.00;;;4.50;;
74920;SDS011;63483;47.384;8.860;2023-02-11T05:27:27;11.33;;;4.83;;
74920;SDS011;63483;47.384;8.860;2023-02-11T05:29:53;11.77;;;5.60;;
74920;SDS011;63483;47.384;8.860;2023-02-11T05:32:18;9.35;;;4.55;;
74920;SDS011;63483;47.384;8.860;2023-02-11T05:34:43;10.13;;;4.47;;
74920;SDS011;63483;47.384;8.860;2023-02-11T05:37:09;10.93;;;4.93;;
74920;SDS011;63483;47.384;8.860;2023-02-11T05:39:34;10.43;;;4.90;;
74920;SDS011;63483;47.384;8.860;2023-02-11T05:41:59;12.90;;;5.23;;
74920;SDS011;63483;47.384;8.860;2023-02-11T05:44:25;9.43;;;4.93;;
74920;SDS011;63483;47.384;8.860;2023-02-11T05:46:50;10.47;;;5.40;;
74920;SDS011;63483;47.384;8.860;2023-02-11T05:49:16;9.48;;;4.53;;
74920;SDS011;63483;47.384;8.860;2023-02-11T05:51:41;12.40;;;4.43;;
74920;SDS011;63483;47.384;8.860;2023-02-11T05:54:07;10.02;;;4.00;;
74920;SDS011;63483;47.384;8.860;2023-02-11T05:56:32;9.07;;;4.85;;
74920;SDS011;63483;47.384;8.860;2023-02-11T05:58:58;11.20;;;4.83;;
74920;SDS011;63483;47.384;8.860;2023-02-11T06:01:24;8.68;;;4.20;;
74920;SDS011;63483;47.384;8.860;2023-02-11T06:03:49;9.05;;;4.30;;
74920;SDS011;63483;47.384;8.860;2023-02-11T06:06:15;9.60;;;3.87;;
74920;SDS011;63483;47.384;8.860;2023-02-11T06:08:41;7.70;;;3.58;;
74920;SDS011;63483;47.384;8.860;2023-02-11T06:11:07;7.50;;;3.97;;
74920;SDS011;63483;47.384;8.860;2023-02-11T06:13:32;7.82;;;3.63;;
74920;SDS011;63483;47.384;8.860;2023-02-11T06:15:58;9.87;;;4.17;;
74920;SDS011;63483;47.384;8.860;2023-02-11T06:18:25;11.25;;;4.03;;
74920;SDS011;63483;47.384;8.860;2023-02-11T06:20:50;11.65;;;5.10;;
74920;SDS011;63483;47.384;8.860;2023-02-11T06:23:17;10.40;;;4.45;;
74920;SDS011;63483;47.384;8.860;2023-02-11T06:25:42;10.82;;;5.13;;
74920;SDS011;63483;47.384;8.860;2023-02-11T06:28:08;9.73;;;4.10;;
74920;SDS011;63483;47.384;8.860;2023-02-11T06:30:35;11.07;;;4.30;;
74920;SDS011;63483;47.384;8.860;2023-02-11T06:33:00;9.37;;;3.87;;
74920;SDS011;63483;47.384;8.860;2023-02-11T06:35:26;10.75;;;4.45;;
74920;SDS011;63483;47.384;8.860;2023-02-11T06:37:51;10.27;;;4.60;;
74920;SDS011;63483;47.384;8.860;2023-02-11T06:40:18;9.47;;;4.40;;
74920;SDS011;63483;47.384;8.860;2023-02-11T06:42:43;10.45;;;3.65;;
74920;SDS011;63483;47.384;8.860;2023-02-11T06:45:09;10.60;;;4.10;;
74920;SDS011;63483;47.384;8.860;2023-02-11T06:47:35;10.70;;;4.72;;
74920;SDS011;63483;47.384;8.860;2023-02-11T06:50:01;9.70;;;4.30;;
74920;SDS011;63483;47.384;8.860;2023-02-11T06:52:26;10.27;;;4.37;;
74920;SDS011;63483;47.384;8.860;2023-02-11T06:54:51;14.40;;;5.43;;
74920;SDS011;63483;47.384;8.860;2023-02-11T06:57:17;10.33;;;3.97;;
74920;SDS011;63483;47.384;8.860;2023-02-11T06:59:42;7.43;;;3.33;;
74920;SDS011;63483;47.384;8.860;2023-02-11T07:02:08;8.93;;;4.65;;
74920;SDS011;63483;47.384;8.860;2023-02-11T07:04:34;8.18;;;4.10;;
74920;SDS011;63483;47.384;8.860;2023-02-11T07:06:59;10.13;;;4.90;;
74920;SDS011;63483;47.384;8.860;2023-02-11T07:09:25;11.88;;;5.22;;
74920;SDS011;63483;47.384;8.860;2023-02-11T07:11:50;6.80;;;3.10;;
74920;SDS011;63483;47.384;8.860;2023-02-11T07:14:16;10.20;;;4.23;;
74920;SDS011;63483;47.384;8.860;2023-02-11T07:16:41;8.00;;;4.13;;
74920;SDS011;63483;47.384;8.860;2023-02-11T07:19:06;10.60;;;5.40;;
74920;SDS011;63483;47.384;8.860;2023-02-11T07:21:32;11.27;;;5.27;;
74920;SDS011;63483;47.384;8.860;2023-02-11T07:23:57;14.77;;;7.57;;
74920;SDS011;63483;47.384;8.860;2023-02-11T07:26:23;10.73;;;5.13;;
74920;SDS011;63483;47.384;8.860;2023-02-11T07:28:49;14.35;;;5.85;;
74920;SDS011;63483;47.384;8.860;2023-02-11T07:31:17;15.50;;;6.35;;
74920;SDS011;63483;47.384;8.860;2023-02-11T07:33:44;13.73;;;6.30;;
74920;SDS011;63483;47.384;8.860;2023-02-11T07:36:10;16.98;;;6.13;;
74920;SDS011;63483;47.384;8.860;2023-02-11T07:38:37;14.35;;;6.22;;
74920;SDS011;63483;47.384;8.860;2023-02-11T07:41:03;13.05;;;5.47;;
74920;SDS011;63483;47.384;8.860;2023-02-11T07:43:33;14.27;;;6.20;;
74920;SDS011;63483;47.384;8.860;2023-02-11T07:46:03;11.40;;;5.85;;
74920;SDS011;63483;47.384;8.860;2023-02-11T07:48:33;13.85;;;5.88;;
74920;SDS011;63483;47.384;8.860;2023-02-11T07:51:06;15.43;;;6.90;;
74920;SDS011;63483;47.384;8.860;2023-02-11T07:53:37;16.45;;;7.30;;
74920;SDS011;63483;47.384;8.860;2023-02-11T07:56:03;15.00;;;6.35;;
74920;SDS011;63483;47.384;8.860;2023-02-11T07:58:30;13.63;;;5.77;;
74920;SDS011;63483;47.384;8.860;2023-02-11T08:01:00;13.45;;;6.32;;
74920;SDS011;63483;47.384;8.860;2023-02-11T08:03:26;11.10;;;4.43;;
74920;SDS011;63483;47.384;8.860;2023-02-11T08:05:51;13.60;;;5.57;;
74920;SDS011;63483;47.384;8.860;2023-02-11T08:08:17;9.85;;;4.82;;
74920;SDS011;63483;47.384;8.860;2023-02-11T08:10:42;12.25;;;5.20;;
74920;SDS011;63483;47.384;8.860;2023-02-11T08:13:07;16.63;;;7.00;;
74920;SDS011;63483;47.384;8.860;2023-02-11T08:15:33;17.13;;;6.37;;
74920;SDS011;63483;47.384;8.860;2023-02-11T08:17:58;13.73;;;5.63;;
74920;SDS011;63483;47.384;8.860;2023-02-11T08:20:23;10.93;;;5.40;;
74920;SDS011;63483;47.384;8.860;2023-02-11T08:22:49;10.97;;;5.40;;
74920;SDS011;63483;47.384;8.860;2023-02-11T08:25:14;12.80;;;6.47;;
74920;SDS011;63483;47.384;8.860;2023-02-11T08:27:39;13.13;;;6.43;;
74920;SDS011;63483;47.384;8.860;2023-02-11T08:30:05;12.50;;;5.90;;
74920;SDS011;63483;47.384;8.860;2023-02-11T08:32:32;13.70;;;6.03;;
74920;SDS011;63483;47.384;8.860;2023-02-11T08:34:58;15.68;;;6.60;;
74920;SDS011;63483;47.384;8.860;2023-02-11T08:37:23;11.57;;;5.97;;
74920;SDS011;63483;47.384;8.860;2023-02-11T08:39:49;15.00;;;6.67;;
74920;SDS011;63483;47.384;8.860;2023-02-11T08:42:15;12.57;;;6.13;;
74920;SDS011;63483;47.384;8.860;2023-02-11T08:44:40;17.27;;;8.43;;
74920;SDS011;63483;47.384;8.860;2023-02-11T08:47:06;27.13;;;11.57;;
74920;SDS011;63483;47.384;8.860;2023-02-11T08:49:31;16.42;;;7.95;;
74920;SDS011;63483;47.384;8.860;2023-02-11T08:51:58;15.30;;;7.03;;
74920;SDS011;63483;47.384;8.860;2023-02-11T08:54:27;21.15;;;10.10;;
74920;SDS011;63483;47.384;8.860;2023-02-11T08:56:53;16.90;;;8.05;;
74920;SDS011;63483;47.384;8.860;2023-02-11T08:59:19;15.37;;;6.90;;
74920;SDS011;63483;47.384;8.860;2023-02-11T09:01:44;15.23;;;7.47;;
74920;SDS011;63483;47.384;8.860;2023-02-11T09:04:11;19.63;;;8.50;;
74920;SDS011;63483;47.384;8.860;2023-02-11T09:06:37;15.93;;;7.97;;
74920;SDS011;63483;47.384;8.860;2023-02-11T09:09:03;14.40;;;6.88;;
74920;SDS011;63483;47.384;8.860;2023-02-11T09:11:31;18.63;;;8.73;;
74920;SDS011;63483;47.384;8.860;2023-02-11T09:13:58;15.02;;;6.70;;
74920;SDS011;63483;47.384;8.860;2023-02-11T09:16:25;16.13;;;7.65;;
74920;SDS011;63483;47.384;8.860;2023-02-11T09:18:54;17.23;;;7.85;;
74920;SDS011;63483;47.384;8.860;2023-02-11T09:21:21;14.15;;;7.35;;
74920;SDS011;63483;47.384;8.860;2023-02-11T09:23:46;13.47;;;6.90;;
74920;SDS011;63483;47.384;8.860;2023-02-11T09:26:19;13.30;;;7.67;;
74920;SDS011;63483;47.384;8.860;2023-02-11T09:28:46;16.38;;;7.10;;
74920;SDS011;63483;47.384;8.860;2023-02-11T09:31:13;15.68;;;7.32;;
74920;SDS011;63483;47.384;8.860;2023-02-11T09:33:40;12.93;;;6.32;;
74920;SDS011;63483;47.384;8.860;2023-02-11T09:36:11;17.58;;;7.35;;
74920;SDS011;63483;47.384;8.860;2023-02-11T09:38:38;15.00;;;7.03;;
74920;SDS011;63483;47.384;8.860;2023-02-11T09:41:04;15.03;;;7.53;;
74920;SDS011;63483;47.384;8.860;2023-02-11T09:43:35;23.63;;;10.63;;
74920;SDS011;63483;47.384;8.860;2023-02-11T09:46:08;27.27;;;13.15;;
74920;SDS011;63483;47.384;8.860;2023-02-11T09:48:42;23.80;;;11.98;;
74920;SDS011;63483;47.384;8.860;2023-02-11T09:51:45;18.90;;;9.20;;
74920;SDS011;63483;47.384;8.860;2023-02-11T09:56:51;22.23;;;10.18;;
74920;SDS011;63483;47.384;8.860;2023-02-11T09:59:17;20.23;;;9.65;;
74920;SDS011;63483;47.384;8.860;2023-02-11T10:06:56;20.55;;;10.13;;
74920;SDS011;63483;47.384;8.860;2023-02-11T10:12:31;23.52;;;10.27;;
74920;SDS011;63483;47.384;8.860;2023-02-11T10:15:13;22.65;;;10.73;;
74920;SDS011;63483;47.384;8.860;2023-02-11T10:23:24;19.55;;;9.10;;
74920;SDS011;63483;47.384;8.860;2023-02-11T10:25:54;20.00;;;9.75;;
74920;SDS011;63483;47.384;8.860;2023-02-11T10:28:32;22.92;;;10.50;;
74920;SDS011;63483;47.384;8.860;2023-02-11T10:30:59;22.10;;;10.80;;
74920;SDS011;63483;47.384;8.860;2023-02-11T10:33:30;20.60;;;9.75;;
74920;SDS011;63483;47.384;8.860;2023-02-11T10:36:04;21.33;;;10.27;;
74920;SDS011;63483;47.384;8.860;2023-02-11T10:38:38;23.17;;;10.48;;
74920;SDS011;63483;47.384;8.860;2023-02-11T10:41:04;21.65;;;9.43;;
74920;SDS011;63483;47.384;8.860;2023-02-11T10:43:31;39.47;;;16.55;;
74920;SDS011;63483;47.384;8.860;2023-02-11T10:45:59;34.03;;;15.00;;
74920;SDS011;63483;47.384;8.860;2023-02-11T10:48:37;26.33;;;12.88;;
74920;SDS011;63483;47.384;8.860;2023-02-11T10:51:07;26.63;;;12.32;;
74920;SDS011;63483;47.384;8.860;2023-02-11T10:54:10;25.17;;;11.70;;
74920;SDS011;63483;47.384;8.860;2023-02-11T10:56:43;28.05;;;12.18;;
74920;SDS011;63483;47.384;8.860;2023-02-11T11:04:55;27.38;;;13.20;;
74920;SDS011;63483;47.384;8.860;2023-02-11T11:07:14;26.30;;;13.27;;
74920;SDS011;63483;47.384;8.860;2023-02-11T11:17:35;20.60;;;10.60;;
74920;SDS011;63483;47.384;8.860;2023-02-11T11:20:21;19.08;;;9.75;;
74920;SDS011;63483;47.384;8.860;2023-02-11T11:22:48;18.13;;;8.73;;
74920;SDS011;63483;47.384;8.860;2023-02-11T11:25:27;22.08;;;10.65;;
74920;SDS011;63483;47.384;8.860;2023-02-11T11:27:58;23.27;;;11.63;;
74920;SDS011;63483;47.384;8.860;2023-02-11T11:30:27;18.90;;;9.55;;
74920;SDS011;63483;47.384;8.860;2023-02-11T11:32:58;20.48;;;11.18;;
74920;SDS011;63483;47.384;8.860;2023-02-11T11:35:26;22.90;;;10.48;;
74920;SDS011;63483;47.384;8.860;2023-02-11T11:38:00;19.17;;;10.02;;
74920;SDS011;63483;47.384;8.860;2023-02-11T11:40:32;18.50;;;9.97;;
74920;SDS011;63483;47.384;8.860;2023-02-11T11:45:29;19.52;;;10.23;;
74920;SDS011;63483;47.384;8.860;2023-02-11T11:50:46;20.27;;;9.80;;
74920;SDS011;63483;47.384;8.860;2023-02-11T11:53:24;18.50;;;9.35;;
74920;SDS011;63483;47.384;8.860;2023-02-11T11:58:41;17.00;;;7.73;;
74920;SDS011;63483;47.384;8.860;2023-02-11T12:10:16;17.20;;;8.50;;
74920;SDS011;63483;47.384;8.860;2023-02-11T12:15:45;16.10;;;8.57;;
74920;SDS011;63483;47.384;8.860;2023-02-11T12:27:22;15.48;;;8.10;;
74920;SDS011;63483;47.384;8.860;2023-02-11T12:32:45;13.00;;;7.47;;
74920;SDS011;63483;47.384;8.860;2023-02-11T12:35:25;15.97;;;8.10;;
74920;SDS011;63483;47.384;8.860;2023-02-11T12:44:20;16.42;;;8.05;;
74920;SDS011;63483;47.384;8.860;2023-02-11T12:46:53;13.38;;;6.97;;
74920;SDS011;63483;47.384;8.860;2023-02-11T12:55:44;14.02;;;7.63;;
74920;SDS011;63483;47.384;8.860;2023-02-11T12:57:52;15.05;;;6.88;;
74920;SDS011;63483;47.384;8.860;2023-02-11T13:03:14;14.43;;;7.27;;
74920;SDS011;63483;47.384;8.860;2023-02-11T13:05:48;16.15;;;8.40;;
74920;SDS011;63483;47.384;8.860;2023-02-11T13:11:15;14.70;;;7.65;;
74920;SDS011;63483;47.384;8.860;2023-02-11T13:16:18;13.67;;;7.33;;
74920;SDS011;63483;47.384;8.860;2023-02-11T13:21:33;14.43;;;7.53;;
74920;SDS011;63483;47.384;8.860;2023-02-11T13:37:55;14.95;;;8.20;;
74920;SDS011;63483;47.384;8.860;2023-02-11T13:40:33;14.40;;;7.68;;
74920;SDS011;63483;47.384;8.860;2023-02-11T13:43:01;15.07;;;7.70;;
74920;SDS011;63483;47.384;8.860;2023-02-11T13:45:29;14.17;;;8.00;;
74920;SDS011;63483;47.384;8.860;2023-02-11T13:48:00;15.35;;;7.97;;
74920;SDS011;63483;47.384;8.860;2023-02-11T13:50:29;15.50;;;8.18;;
74920;SDS011;63483;47.384;8.860;2023-02-11T13:53:01;17.55;;;8.48;;
74920;SDS011;63483;47.384;8.860;2023-02-11T13:55:29;16.67;;;8.27;;
74920;SDS011;63483;47.384;8.860;2023-02-11T14:08:57;13.18;;;6.80;;
74920;SDS011;63483;47.384;8.860;2023-02-11T14:16:15;14.53;;;7.50;;
74920;SDS011;63483;47.384;8.860;2023-02-11T14:23:41;13.57;;;6.83;;
74920;SDS011;63483;47.384;8.860;2023-02-11T14:28:41;13.98;;;7.90;;
74920;SDS011;63483;47.384;8.860;2023-02-11T14:31:14;14.10;;;7.55;;
74920;SDS011;63483;47.384;8.860;2023-02-11T14:39:31;11.88;;;6.97;;
74920;SDS011;63483;47.384;8.860;2023-02-11T14:42:01;12.60;;;6.50;;
74920;SDS011;63483;47.384;8.860;2023-02-11T14:44:29;11.90;;;6.82;;
74920;SDS011;63483;47.384;8.860;2023-02-11T14:46:56;11.68;;;7.07;;
74920;SDS011;63483;47.384;8.860;2023-02-11T14:49:27;12.50;;;6.10;;
74920;SDS011;63483;47.384;8.860;2023-02-11T14:51:56;10.98;;;5.70;;
74920;SDS011;63483;47.384;8.860;2023-02-11T14:54:27;13.55;;;7.72;;
74920;SDS011;63483;47.384;8.860;2023-02-11T14:57:13;14.80;;;6.90;;
74920;SDS011;63483;47.384;8.860;2023-02-11T15:02:43;12.73;;;6.60;;
74920;SDS011;63483;47.384;8.860;2023-02-11T15:05:16;13.90;;;7.35;;
74920;SDS011;63483;47.384;8.860;2023-02-11T15:07:51;13.65;;;7.80;;
74920;SDS011;63483;47.384;8.860;2023-02-11T15:10:27;12.63;;;6.60;;
74920;SDS011;63483;47.384;8.860;2023-02-11T15:12:55;11.32;;;6.70;;
74920;SDS011;63483;47.384;8.860;2023-02-11T15:15:22;12.98;;;7.68;;
74920;SDS011;63483;47.384;8.860;2023-02-11T15:17:47;15.47;;;6.90;;
74920;SDS011;63483;47.384;8.860;2023-02-11T15:20:21;11.38;;;6.68;;
74920;SDS011;63483;47.384;8.860;2023-02-11T15:22:53;12.30;;;7.03;;
74920;SDS011;63483;47.384;8.860;2023-02-11T15:25:21;12.27;;;7.17;;
74920;SDS011;63483;47.384;8.860;2023-02-11T15:27:49;14.80;;;7.38;;
74920;SDS011;63483;47.384;8.860;2023-02-11T15:32:48;12.98;;;7.20;;
74920;SDS011;63483;47.384;8.860;2023-02-11T15:35:14;12.02;;;6.30;;
74920;SDS011;63483;47.384;8.860;2023-02-11T15:37:41;14.20;;;7.40;;
74920;SDS011;63483;47.384;8.860;2023-02-11T15:40:09;12.98;;;7.45;;
74920;SDS011;63483;47.384;8.860;2023-02-11T15:42:53;15.40;;;7.90;;
74920;SDS011;63483;47.384;8.860;2023-02-11T15:45:42;16.65;;;8.63;;
74920;SDS011;63483;47.384;8.860;2023-02-11T15:48:40;16.13;;;8.52;;
74920;SDS011;63483;47.384;8.860;2023-02-11T15:51:09;18.53;;;8.47;;
74920;SDS011;63483;47.384;8.860;2023-02-11T15:53:37;15.68;;;8.13;;
74920;SDS011;63483;47.384;8.860;2023-02-11T15:56:13;15.50;;;8.48;;
74920;SDS011;63483;47.384;8.860;2023-02-11T15:58:44;12.82;;;7.70;;
74920;SDS011;63483;47.384;8.860;2023-02-11T16:01:12;14.65;;;7.45;;
74920;SDS011;63483;47.384;8.860;2023-02-11T16:03:39;15.67;;;8.43;;
74920;SDS011;63483;47.384;8.860;2023-02-11T16:06:17;13.50;;;7.65;;
74920;SDS011;63483;47.384;8.860;2023-02-11T16:09:00;15.00;;;7.68;;
74920;SDS011;63483;47.384;8.860;2023-02-11T16:16:52;13.38;;;7.78;;
74920;SDS011;63483;47.384;8.860;2023-02-11T16:19:21;13.77;;;7.18;;
74920;SDS011;63483;47.384;8.860;2023-02-11T16:21:50;12.45;;;7.55;;
74920;SDS011;63483;47.384;8.860;2023-02-11T16:24:21;12.40;;;7.32;;
74920;SDS011;63483;47.384;8.860;2023-02-11T16:26:52;15.90;;;8.73;;
74920;SDS011;63483;47.384;8.860;2023-02-11T16:29:26;13.98;;;8.02;;
74920;SDS011;63483;47.384;8.860;2023-02-11T16:34:39;15.90;;;8.30;;
74920;SDS011;63483;47.384;8.860;2023-02-11T16:37:04;15.63;;;8.37;;
74920;SDS011;63483;47.384;8.860;2023-02-11T16:39:30;15.53;;;8.57;;
74920;SDS011;63483;47.384;8.860;2023-02-11T16:41:55;15.67;;;8.50;;
74920;SDS011;63483;47.384;8.860;2023-02-11T16:44:22;18.90;;;9.50;;
74920;SDS011;63483;47.384;8.860;2023-02-11T16:46:47;18.42;;;9.88;;
74920;SDS011;63483;47.384;8.860;2023-02-11T16:49:17;17.20;;;10.10;;
74920;SDS011;63483;47.384;8.860;2023-02-11T16:51:47;17.23;;;9.18;;
74920;SDS011;63483;47.384;8.860;2023-02-11T16:54:16;19.50;;;10.02;;
74920;SDS011;63483;47.384;8.860;2023-02-11T16:56:42;20.47;;;10.57;;
74920;SDS011;63483;47.384;8.860;2023-02-11T16:59:08;25.70;;;13.48;;
74920;SDS011;63483;47.384;8.860;2023-02-11T17:01:33;28.08;;;14.07;;
74920;SDS011;63483;47.384;8.860;2023-02-11T17:04:02;20.87;;;11.63;;
74920;SDS011;63483;47.384;8.860;2023-02-11T17:06:28;39.67;;;19.10;;
74920;SDS011;63483;47.384;8.860;2023-02-11T17:08:53;26.37;;;12.50;;
74920;SDS011;63483;47.384;8.860;2023-02-11T17:11:19;23.58;;;12.88;;
74920;SDS011;63483;47.384;8.860;2023-02-11T17:13:44;28.53;;;15.63;;
74920;SDS011;63483;47.384;8.860;2023-02-11T17:16:20;29.52;;;14.75;;
74920;SDS011;63483;47.384;8.860;2023-02-11T17:18:47;28.47;;;14.93;;
74920;SDS011;63483;47.384;8.860;2023-02-11T17:21:13;22.67;;;11.98;;
74920;SDS011;63483;47.384;8.860;2023-02-11T17:23:39;25.67;;;13.65;;
74920;SDS011;63483;47.384;8.860;2023-02-11T17:26:05;262.63;;;20.77;;
74920;SDS011;63483;47.384;8.860;2023-02-11T17:28:30;23.55;;;12.30;;
74920;SDS011;63483;47.384;8.860;2023-02-11T17:30:56;17.50;;;10.80;;
74920;SDS011;63483;47.384;8.860;2023-02-11T17:33:22;21.50;;;10.73;;
74920;SDS011;63483;47.384;8.860;2023-02-11T17:35:48;23.17;;;11.25;;
74920;SDS011;63483;47.384;8.860;2023-02-11T17:38:13;23.93;;;11.13;;